Minerva Anna — SVNP — position and weather

sailwx.info

Track history (hours):
 
Tides and Currents Weather Stations Pressure Air Temp Water Temp Dewpoint Dewpoint Depression Visibility Wind Speed Wind Dir Waves Ship Positions

Minerva Anna

Last reported at 2015-Jul-22 02:34 UTC. Time now 2015-Jul-30 10:04 UTC.
Position N 29°21' W 094°42'.
Warning: this ship's position is 8 days out of date.

Length 183 m; draft 8.5 m.

Type: Ship. MMSI: 240729000.

Date/timePositionNaut miles runAvg speedWind from/ knotsBaromVisibWave heightAir tempDewpointWater temp
2015-Jul-22 02:34N 29°21' W 094°42'1111.4
2015-Jul-22 01:34N 29°29' W 094°51'1212.3
2015-Jul-22 00:34N 29°40' W 094°58'9 8.6
2015-Jul-21 23:33N 29°46' W 095°05'1 0.4
2015-Jul-21 20:27N 29°45' W 095°06'0 0.0
2015-Jul-21 18:18N 29°45' W 095°06'0 0.0
2015-Jul-21 17:30N 29°45' W 095°06'0 0.0
2015-Jul-21 16:24N 29°45' W 095°06'0 0.0
2015-Jul-21 15:33N 29°45' W 095°06'0 0.0
2015-Jul-21 13:27N 29°45' W 095°06'0 0.0
2015-Jul-20 15:33N 29°45' W 095°06'4 4.4
2015-Jul-20 14:34N 29°43' W 095°01'10 9.6
2015-Jul-20 13:33N 29°35' W 094°56'1110.9
2015-Jul-20 12:33N 29°26' W 094°50'  
2015-Jul-14 21:33N 29°21' W 094°45'10 9.8
2015-Jul-14 20:34N 29°29' W 094°51'9 9.1
2015-Jul-14 19:34N 29°36' W 094°57'8 8.5
2015-Jul-14 18:33N 29°44' W 095°02'5 5.1
2015-Jul-14 17:32N 29°44' W 095°08'4 4.4
2015-Jul-14 16:32N 29°44' W 095°13'0 0.0
2015-Jul-12 16:32N 29°44' W 095°13'1 0.9
2015-Jul-12 15:33N 29°43' W 095°14'5 4.6
2015-Jul-12 14:33N 29°44' W 095°09'6 5.8
2015-Jul-12 13:33N 29°44' W 095°02'9 8.7
2015-Jul-12 12:33N 29°36' W 094°57'1111.3
2015-Jul-12 11:33N 29°27' W 094°50'  
Track history (hours):
 
Tides and Currents Weather Stations Pressure Air Temp Water Temp Dewpoint Dewpoint Depression Visibility Wind Speed Wind Dir Waves Ship Positions

Minerva Anna

Last reported at 2015-Jul-22 02:34 UTC. Time now 2015-Jul-30 10:04 UTC.
Position N 29°21' W 094°42'.
Warning: this ship's position is 8 days out of date.

Length 183 m; draft 8.5 m.

Type: Ship. MMSI: 240729000.

Date/timePositionNaut miles runAvg speedWind from/ knotsBaromVisibWave heightAir tempDewpointWater temp
2015-Jul-22 02:34N 29°21' W 094°42'1111.4
2015-Jul-22 01:34N 29°29' W 094°51'1212.3
2015-Jul-22 00:34N 29°40' W 094°58'9 8.6
2015-Jul-21 23:33N 29°46' W 095°05'1 0.4
2015-Jul-21 20:27N 29°45' W 095°06'0 0.0
2015-Jul-21 18:18N 29°45' W 095°06'0 0.0
2015-Jul-21 17:30N 29°45' W 095°06'0 0.0
2015-Jul-21 16:24N 29°45' W 095°06'0 0.0
2015-Jul-21 15:33N 29°45' W 095°06'0 0.0
2015-Jul-21 13:27N 29°45' W 095°06'0 0.0
2015-Jul-20 15:33N 29°45' W 095°06'4 4.4
2015-Jul-20 14:34N 29°43' W 095°01'10 9.6
2015-Jul-20 13:33N 29°35' W 094°56'1110.9
2015-Jul-20 12:33N 29°26' W 094°50'  
2015-Jul-14 21:33N 29°21' W 094°45'10 9.8
2015-Jul-14 20:34N 29°29' W 094°51'9 9.1
2015-Jul-14 19:34N 29°36' W 094°57'8 8.5
2015-Jul-14 18:33N 29°44' W 095°02'5 5.1
2015-Jul-14 17:32N 29°44' W 095°08'4 4.4
2015-Jul-14 16:32N 29°44' W 095°13'0 0.0
2015-Jul-12 16:32N 29°44' W 095°13'1 0.9
2015-Jul-12 15:33N 29°43' W 095°14'5 4.6
2015-Jul-12 14:33N 29°44' W 095°09'6 5.8
2015-Jul-12 13:33N 29°44' W 095°02'9 8.7
2015-Jul-12 12:33N 29°36' W 094°57'1111.3
2015-Jul-12 11:33N 29°27' W 094°50'  

Dump ship's entire track history